createdAt,value
2018-02-18T00:00:05.248Z,22.6
2018-02-18T00:02:05.070Z,22.6
2018-02-18T00:04:04.840Z,22.6
2018-02-18T00:06:04.836Z,22.6
2018-02-18T00:08:05.609Z,22.6
2018-02-18T00:10:05.444Z,22.6
2018-02-18T00:12:09.780Z,22.5
2018-02-18T00:14:05.798Z,22.6
2018-02-18T00:16:05.557Z,22.6
2018-02-18T00:18:05.534Z,22.6
2018-02-18T00:20:05.283Z,22.6
2018-02-18T00:22:05.072Z,22.6
2018-02-18T00:24:05.404Z,22.6
2018-02-18T00:26:05.163Z,22.5
2018-02-18T00:28:04.948Z,22.5
2018-02-18T00:30:05.154Z,22.5
2018-02-18T00:32:05.474Z,22.5
2018-02-18T00:34:05.256Z,22.5
2018-02-18T00:36:07.841Z,22.5
2018-02-18T00:38:07.370Z,22.5
2018-02-18T00:40:04.646Z,22.5
2018-02-18T00:42:05.494Z,22.5
2018-02-18T00:44:05.313Z,22.5
2018-02-18T00:46:05.304Z,22.5
2018-02-18T00:48:12.604Z,22.5
2018-02-18T00:50:08.014Z,22.5
2018-02-18T00:52:04.861Z,22.5
2018-02-18T00:54:05.584Z,22.5
2018-02-18T00:56:04.958Z,22.5
2018-02-18T00:58:12.849Z,22.5
2018-02-18T01:00:09.804Z,22.5
2018-02-18T01:02:05.562Z,22.5
2018-02-18T01:04:10.465Z,22.4
2018-02-18T01:06:05.259Z,22.5
2018-02-18T01:08:05.334Z,22.4
2018-02-18T01:10:08.164Z,22.4
2018-02-18T01:12:04.948Z,22.4
2018-02-18T01:14:04.745Z,22.4
2018-02-18T01:16:05.499Z,22.4
2018-02-18T01:18:08.060Z,22.4
2018-02-18T01:20:04.802Z,22.4
2018-02-18T01:22:05.716Z,22.4
2018-02-18T01:24:04.991Z,22.4
2018-02-18T01:26:04.988Z,22.4
2018-02-18T01:28:04.713Z,22.4
2018-02-18T01:30:05.555Z,22.4
2018-02-18T01:32:05.333Z,22.4
2018-02-18T01:34:04.648Z,22.4
2018-02-18T01:36:05.535Z,22.4
2018-02-18T01:38:04.854Z,22.4
2018-02-18T01:40:04.645Z,22.4
2018-02-18T01:42:05.458Z,22.4
2018-02-18T01:44:05.299Z,22.3
2018-02-18T01:46:05.041Z,22.3
2018-02-18T01:48:07.321Z,22.4
2018-02-18T01:50:05.608Z,22.4
2018-02-18T01:52:10.411Z,22.3
2018-02-18T01:54:05.146Z,22.3
2018-02-18T01:56:05.488Z,22.3
2018-02-18T01:58:07.979Z,22.3
2018-02-18T02:00:04.747Z,22.3
2018-02-18T02:02:05.251Z,22.3
2018-02-18T02:04:07.567Z,22.3
2018-02-18T02:06:10.387Z,22.3
2018-02-18T02:08:07.744Z,22.3
2018-02-18T02:10:05.517Z,22.3
2018-02-18T02:12:04.782Z,22.3
2018-02-18T02:14:05.591Z,22.3
2018-02-18T02:16:05.358Z,22.3
2018-02-18T02:18:07.819Z,22.3
2018-02-18T02:20:05.112Z,22.3
2018-02-18T02:22:04.901Z,22.3
2018-02-18T02:24:07.151Z,22.3
2018-02-18T02:26:05.211Z,22.3
2018-02-18T02:28:07.505Z,22.3
2018-02-18T02:30:05.505Z,22.3
2018-02-18T02:32:05.628Z,22.3
2018-02-18T02:34:04.955Z,22.2
2018-02-18T02:36:04.756Z,22.3
2018-02-18T02:38:05.582Z,22.3
2018-02-18T02:40:05.431Z,22.3
2018-02-18T02:42:05.194Z,22.3
2018-02-18T02:44:04.964Z,22.2
2018-02-18T02:46:04.757Z,22.2
2018-02-18T02:48:05.160Z,22.2
2018-02-18T02:50:04.978Z,22.2
2018-02-18T02:52:04.800Z,22.2
2018-02-18T02:54:05.600Z,22.2
2018-02-18T02:56:05.367Z,22.3
2018-02-18T02:58:05.178Z,22.2
2018-02-18T03:00:05.008Z,22.2
2018-02-18T03:02:05.398Z,22.2
2018-02-18T03:04:05.172Z,22.2
2018-02-18T03:06:09.993Z,22.2
2018-02-18T03:08:04.725Z,22.2
2018-02-18T03:10:05.540Z,22.2
2018-02-18T03:12:05.366Z,22.2
2018-02-18T03:14:05.135Z,22.2
2018-02-18T03:16:04.911Z,22.2
2018-02-18T03:18:04.925Z,22.2
2018-02-18T03:20:04.672Z,22.2
2018-02-18T03:22:05.412Z,22.2
2018-02-18T03:24:07.668Z,22.2
2018-02-18T03:26:07.532Z,22.2
2018-02-18T03:28:05.259Z,22.2
2018-02-18T03:30:05.007Z,22.2
2018-02-18T03:32:14.957Z,22.1
2018-02-18T03:34:04.715Z,22.2
2018-02-18T03:36:05.630Z,22.2
2018-02-18T03:38:05.432Z,22.1
2018-02-18T03:40:04.814Z,22.2
2018-02-18T03:42:05.613Z,22.1
2018-02-18T03:44:04.979Z,22.1
2018-02-18T03:46:04.717Z,22.1
2018-02-18T03:48:05.481Z,22.2
2018-02-18T03:50:05.230Z,22.1
2018-02-18T03:52:05.003Z,22.2
2018-02-18T03:54:07.374Z,22.1
2018-02-18T03:56:07.219Z,22.1
2018-02-18T03:58:12.606Z,22.1
2018-02-18T04:00:05.361Z,22.1
2018-02-18T04:02:05.136Z,22.1
2018-02-18T04:04:05.490Z,22.1
2018-02-18T04:06:04.933Z,22.1
2018-02-18T04:08:04.877Z,22.1
2018-02-18T04:10:04.701Z,22.1
2018-02-18T04:12:05.466Z,22.1
2018-02-18T04:14:05.287Z,22.1
2018-02-18T04:16:05.553Z,22.1
2018-02-18T04:18:08.151Z,22.1
2018-02-18T04:20:07.431Z,22.1
2018-02-18T04:22:05.553Z,22.1
2018-02-18T04:24:05.452Z,22.1
2018-02-18T04:26:05.459Z,22.1
2018-02-18T04:28:10.366Z,22.1
2018-02-18T04:30:07.184Z,22.1
2018-02-18T04:32:05.077Z,22.1
2018-02-18T04:34:04.826Z,22.1
2018-02-18T04:36:05.127Z,22.1
2018-02-18T04:38:04.913Z,22.1
2018-02-18T04:40:04.639Z,22.1
2018-02-18T04:42:10.574Z,22
2018-02-18T04:44:05.377Z,22
2018-02-18T04:46:05.212Z,22
2018-02-18T04:48:04.929Z,22.1
2018-02-18T04:50:04.718Z,22
2018-02-18T04:52:05.477Z,22.1
2018-02-18T04:54:10.294Z,22.1
2018-02-18T04:56:07.672Z,22.1
2018-02-18T04:58:05.433Z,22.1
2018-02-18T05:00:05.213Z,22.1
2018-02-18T05:02:04.925Z,22.1
2018-02-18T05:04:04.694Z,22.1
2018-02-18T05:06:05.436Z,22.1
2018-02-18T05:08:05.238Z,22.1
2018-02-18T05:10:05.078Z,22.1
2018-02-18T05:12:04.869Z,22.1
2018-02-18T05:14:04.688Z,22.1
2018-02-18T05:16:05.460Z,22.2
2018-02-18T05:18:05.443Z,22.1
2018-02-18T05:20:05.248Z,22.1
2018-02-18T05:22:05.009Z,22.1
2018-02-18T05:24:04.889Z,22.1
2018-02-18T05:26:07.332Z,22.1
2018-02-18T05:28:05.235Z,22.1
2018-02-18T05:30:05.030Z,22.2
2018-02-18T05:32:04.814Z,22.2
2018-02-18T05:34:05.590Z,22.2
2018-02-18T05:36:08.063Z,22.2
2018-02-18T05:38:07.979Z,22.2
2018-02-18T05:40:07.268Z,22.2
2018-02-18T05:42:10.114Z,22.2
2018-02-18T05:44:04.886Z,22.2
2018-02-18T05:46:04.666Z,22.2
2018-02-18T05:48:05.449Z,22.2
2018-02-18T05:50:05.197Z,22.2
2018-02-18T05:52:05.028Z,22.2
2018-02-18T05:54:07.847Z,22.2
2018-02-18T05:56:07.173Z,22.2
2018-02-18T05:58:07.486Z,22.2
2018-02-18T06:00:05.358Z,22.2
2018-02-18T06:02:12.754Z,22.2
2018-02-18T06:04:08.097Z,22.2
2018-02-18T06:06:12.465Z,22.3
2018-02-18T06:08:12.988Z,22.2
2018-02-18T06:10:05.234Z,22.2
2018-02-18T06:12:05.498Z,22.2
2018-02-18T06:14:07.810Z,22.2
2018-02-18T06:16:05.627Z,22.2
2018-02-18T06:18:08.102Z,22.2
2018-02-18T06:20:07.462Z,22.2
2018-02-18T06:22:05.253Z,22.2
2018-02-18T06:24:05.608Z,22.3
2018-02-18T06:26:10.538Z,22.3
2018-02-18T06:28:05.442Z,22.3
2018-02-18T06:30:05.290Z,22.2
2018-02-18T06:32:09.875Z,22.3
2018-02-18T06:34:05.609Z,22.3
2018-02-18T06:36:05.383Z,22.3
2018-02-18T06:38:04.878Z,22.3
2018-02-18T06:40:05.196Z,22.3
2018-02-18T06:42:07.511Z,22.3
2018-02-18T06:44:05.324Z,22.3
2018-02-18T06:46:05.064Z,22.3
2018-02-18T06:48:04.823Z,22.3
2018-02-18T06:50:04.750Z,22.3
2018-02-18T06:52:05.532Z,22.3
2018-02-18T06:54:07.914Z,22.3
2018-02-18T06:56:05.221Z,22.3
2018-02-18T06:58:05.502Z,22.3
2018-02-18T07:00:07.357Z,22.4
2018-02-18T07:02:04.715Z,22.3
2018-02-18T07:04:10.560Z,22.3
2018-02-18T07:06:04.871Z,22.3
2018-02-18T07:08:04.664Z,22.3
2018-02-18T07:10:05.427Z,22.3
2018-02-18T07:12:07.279Z,22.4
2018-02-18T07:14:05.043Z,22.3
2018-02-18T07:16:07.525Z,22.4
2018-02-18T07:18:05.483Z,22.4
2018-02-18T07:20:10.405Z,22.4
2018-02-18T07:22:05.137Z,22.4
2018-02-18T07:24:04.883Z,22.4
2018-02-18T07:26:05.243Z,22.5
2018-02-18T07:28:07.511Z,22.5
2018-02-18T07:30:04.846Z,22.5
2018-02-18T07:32:05.127Z,22.5
2018-02-18T07:34:05.435Z,22.6
2018-02-18T07:36:05.226Z,22.6
2018-02-18T07:38:07.579Z,22.6
2018-02-18T07:40:05.308Z,22.6
2018-02-18T07:42:05.134Z,22.7
2018-02-18T07:44:05.526Z,22.7
2018-02-18T07:46:05.419Z,22.7
2018-02-18T07:48:05.154Z,22.8
2018-02-18T07:50:20.036Z,22.9
2018-02-18T07:52:04.824Z,22.8
2018-02-18T07:54:05.529Z,22.9
2018-02-18T07:56:05.320Z,22.9
2018-02-18T07:58:05.098Z,22.9
2018-02-18T08:00:05.362Z,23
2018-02-18T08:02:05.183Z,23
2018-02-18T08:04:05.028Z,23
2018-02-18T08:06:04.791Z,23.1
2018-02-18T08:08:05.562Z,23.1
2018-02-18T08:10:05.369Z,23.2
2018-02-18T08:12:05.386Z,23.2
2018-02-18T08:14:05.151Z,23.2
2018-02-18T08:16:10.494Z,23.3
2018-02-18T08:18:05.482Z,23.3
2018-02-18T08:20:05.240Z,23.3
2018-02-18T08:22:08.052Z,23.4
2018-02-18T08:24:04.815Z,23.4
2018-02-18T08:26:04.848Z,23.4
2018-02-18T08:28:12.422Z,23.5
2018-02-18T08:30:07.993Z,23.5
2018-02-18T08:32:05.103Z,23.5
2018-02-18T08:34:04.903Z,23.5
2018-02-18T08:36:05.214Z,23.5
2018-02-18T08:38:10.061Z,23.5
2018-02-18T08:40:07.647Z,23.6
2018-02-18T08:42:08.153Z,23.6
2018-02-18T08:44:04.937Z,23.6
2018-02-18T08:46:04.695Z,23.6
2018-02-18T08:48:05.090Z,23.6
2018-02-18T08:50:04.870Z,23.6
2018-02-18T08:52:04.872Z,23.6
2018-02-18T08:54:12.288Z,23.6
2018-02-18T08:56:04.797Z,23.6
2018-02-18T08:58:07.176Z,23.7
2018-02-18T09:00:05.043Z,23.6
2018-02-18T09:02:05.092Z,23.7
2018-02-18T09:04:07.357Z,23.7
2018-02-18T09:06:07.885Z,23.7
2018-02-18T09:08:05.244Z,23.6
2018-02-18T09:10:05.110Z,23.7
2018-02-18T09:12:07.873Z,23.7
2018-02-18T09:14:05.617Z,23.7
2018-02-18T09:16:10.427Z,23.7
2018-02-18T09:18:05.430Z,23.8
2018-02-18T09:20:05.012Z,23.8
2018-02-18T09:22:04.904Z,23.8
2018-02-18T09:24:04.713Z,23.8
2018-02-18T09:26:08.044Z,23.9
2018-02-18T09:28:05.280Z,23.9
2018-02-18T09:30:09.770Z,23.9
2018-02-18T09:32:05.557Z,23.9
2018-02-18T09:34:07.848Z,24
2018-02-18T09:36:13.174Z,23.9
2018-02-18T09:38:04.892Z,23.9
2018-02-18T09:40:04.636Z,23.9
2018-02-18T09:42:05.377Z,23.9
2018-02-18T09:44:05.155Z,24
2018-02-18T09:46:04.968Z,24
2018-02-18T09:48:07.368Z,24
2018-02-18T09:50:05.234Z,23.9
2018-02-18T09:52:05.027Z,24
2018-02-18T09:54:05.049Z,24
2018-02-18T09:56:04.862Z,23.9
2018-02-18T09:58:05.716Z,23.9
2018-02-18T10:00:05.542Z,23.9
2018-02-18T10:02:05.272Z,23.9
2018-02-18T10:04:05.706Z,23.9
2018-02-18T10:06:05.480Z,23.9
2018-02-18T10:08:05.235Z,23.9
2018-02-18T10:10:05.565Z,23.9
2018-02-18T10:12:05.635Z,23.9
2018-02-18T10:14:05.537Z,23.9
2018-02-18T10:16:05.418Z,23.9
2018-02-18T10:18:04.950Z,23.9
2018-02-18T10:20:05.303Z,23.9
2018-02-18T10:22:05.117Z,23.9
2018-02-18T10:24:05.589Z,23.9
2018-02-18T10:26:05.612Z,24
2018-02-18T10:28:05.342Z,24
2018-02-18T10:30:05.139Z,24
2018-02-18T10:32:07.458Z,23.9
2018-02-18T10:34:04.738Z,23.8
2018-02-18T10:36:05.546Z,23.8
2018-02-18T10:38:05.319Z,23.8
2018-02-18T10:40:07.446Z,23.7
2018-02-18T10:42:10.331Z,23.7
2018-02-18T10:44:05.137Z,23.7
2018-02-18T10:46:04.964Z,23.7
2018-02-18T10:48:04.747Z,23.6
2018-02-18T10:50:13.083Z,23.6
2018-02-18T10:52:07.391Z,23.6
2018-02-18T10:54:05.225Z,23.6
2018-02-18T10:56:05.180Z,23.6
2018-02-18T10:58:05.077Z,23.6
2018-02-18T11:00:07.515Z,23.5
2018-02-18T11:02:05.622Z,23.5
2018-02-18T11:04:05.730Z,23.5
2018-02-18T11:06:05.514Z,23.4
2018-02-18T11:08:05.347Z,23.4
2018-02-18T11:10:07.608Z,23.4
2018-02-18T11:12:04.972Z,23.4
2018-02-18T11:14:17.931Z,23.4
2018-02-18T11:16:07.212Z,23.4
2018-02-18T11:18:05.254Z,23.4
2018-02-18T11:20:05.058Z,23.4
2018-02-18T11:22:07.921Z,23.5
2018-02-18T11:24:05.041Z,23.5
2018-02-18T11:26:04.793Z,23.5
2018-02-18T11:28:05.612Z,23.5
2018-02-18T11:30:08.017Z,23.5
2018-02-18T11:32:04.790Z,23.5
2018-02-18T11:34:05.540Z,23.5
2018-02-18T11:36:05.405Z,23.5
2018-02-18T11:38:10.292Z,23.5
2018-02-18T11:40:05.056Z,23.5
2018-02-18T11:42:05.390Z,23.5
2018-02-18T11:44:10.573Z,23.4
2018-02-18T11:46:16.542Z,23.4
2018-02-18T11:48:05.391Z,23.4
2018-02-18T11:50:05.182Z,23.4
2018-02-18T11:52:05.003Z,23.4
2018-02-18T11:54:07.438Z,23.4
2018-02-18T11:56:07.718Z,23.4
2018-02-18T11:58:05.610Z,23.4
2018-02-18T12:00:05.430Z,23.4
2018-02-18T12:02:05.265Z,23.4
2018-02-18T12:04:07.674Z,23.4
2018-02-18T12:06:04.984Z,23.3
2018-02-18T12:08:04.806Z,23.4
2018-02-18T12:10:10.768Z,23.4
2018-02-18T12:12:07.627Z,23.3
2018-02-18T12:14:05.361Z,23.3
2018-02-18T12:16:05.109Z,23.3
2018-02-18T12:18:05.128Z,23.3
2018-02-18T12:20:04.868Z,23.3
2018-02-18T12:22:04.650Z,23.3
2018-02-18T12:24:05.393Z,23.3
2018-02-18T12:26:05.135Z,23.3
2018-02-18T12:28:04.950Z,23.3
2018-02-18T12:31:08.015Z,23.3
2018-02-18T12:32:07.874Z,23.3
2018-02-18T12:34:07.713Z,23.3
2018-02-18T12:36:05.497Z,23.3
2018-02-18T12:38:05.244Z,23.3
2018-02-18T12:40:05.057Z,23.3
2018-02-18T12:42:07.962Z,23.3
2018-02-18T12:44:04.753Z,23.3
2018-02-18T12:46:05.551Z,23.3
2018-02-18T12:48:08.088Z,23.3
2018-02-18T12:50:05.491Z,23.3
2018-02-18T12:52:08.110Z,23.2
2018-02-18T12:54:07.658Z,23.2
2018-02-18T12:56:07.978Z,23.2
2018-02-18T12:58:07.811Z,23.2
2018-02-18T13:00:05.604Z,23.2
2018-02-18T13:02:04.977Z,23.2
2018-02-18T13:04:04.831Z,23.2
2018-02-18T13:06:05.698Z,23.2
2018-02-18T13:08:05.471Z,23.1
2018-02-18T13:10:07.887Z,23.1
2018-02-18T13:12:05.171Z,23.1
2018-02-18T13:14:05.022Z,23.1
2018-02-18T13:16:04.749Z,23.1
2018-02-18T13:18:05.700Z,23.1
2018-02-18T13:20:04.740Z,23.1
2018-02-18T13:22:05.499Z,23
2018-02-18T13:24:10.355Z,23
2018-02-18T13:26:05.142Z,23
2018-02-18T13:28:04.914Z,23
2018-02-18T13:30:08.030Z,23
2018-02-18T13:32:05.362Z,23
2018-02-18T13:34:07.630Z,23
2018-02-18T13:36:04.942Z,23
2018-02-18T13:38:05.340Z,23
2018-02-18T13:40:07.361Z,23
2018-02-18T13:42:05.188Z,23
2018-02-18T13:44:04.950Z,23
2018-02-18T13:46:07.317Z,23
2018-02-18T13:48:05.090Z,23
2018-02-18T13:50:07.411Z,23
2018-02-18T13:52:10.244Z,23
2018-02-18T13:54:05.072Z,23
2018-02-18T13:56:04.982Z,23
2018-02-18T13:58:04.758Z,23
2018-02-18T14:00:05.598Z,23
2018-02-18T14:02:05.507Z,23
2018-02-18T14:04:05.318Z,23
2018-02-18T14:06:05.233Z,23
2018-02-18T14:08:05.527Z,23
2018-02-18T14:10:10.506Z,23
2018-02-18T14:12:05.251Z,23
2018-02-18T14:14:05.551Z,23
2018-02-18T14:16:05.336Z,23
2018-02-18T14:18:07.826Z,23
2018-02-18T14:20:05.551Z,23
2018-02-18T14:22:10.482Z,23
2018-02-18T14:24:05.272Z,23
2018-02-18T14:26:05.613Z,23
2018-02-18T14:28:05.646Z,23
2018-02-18T14:30:10.582Z,23.1
2018-02-18T14:32:04.898Z,23
2018-02-18T14:34:04.638Z,23.1
2018-02-18T14:36:07.909Z,23.1
2018-02-18T14:38:04.697Z,23.1
2018-02-18T14:40:05.098Z,23.1
2018-02-18T14:42:04.914Z,23.1
2018-02-18T14:44:04.705Z,23
2018-02-18T14:46:05.483Z,23
2018-02-18T14:48:04.769Z,23
2018-02-18T14:50:05.545Z,23
2018-02-18T14:52:05.373Z,23
2018-02-18T14:54:05.397Z,23
2018-02-18T14:56:05.339Z,23
2018-02-18T14:58:13.039Z,23
2018-02-18T15:00:04.956Z,23
2018-02-18T15:02:04.916Z,23
2018-02-18T15:04:05.517Z,23
2018-02-18T15:06:05.595Z,23
2018-02-18T15:08:10.089Z,22.9
2018-02-18T15:10:07.727Z,23
2018-02-18T15:12:17.817Z,23
2018-02-18T15:14:05.178Z,23
2018-02-18T15:16:05.048Z,22.9
2018-02-18T15:18:05.433Z,22.9
2018-02-18T15:20:05.510Z,22.9
2018-02-18T15:22:05.493Z,22.9
2018-02-18T15:24:05.397Z,22.9
2018-02-18T15:26:05.241Z,22.9
2018-02-18T15:28:07.530Z,22.9
2018-02-18T15:30:05.535Z,22.9
2018-02-18T15:32:05.647Z,22.9
2018-02-18T15:34:13.186Z,22.9
2018-02-18T15:36:05.324Z,22.9
2018-02-18T15:38:10.296Z,22.9
2018-02-18T15:40:05.308Z,22.9
2018-02-18T15:42:10.339Z,22.9
2018-02-18T15:44:07.340Z,22.9
2018-02-18T15:46:05.195Z,22.9
2018-02-18T15:48:05.033Z,22.9
2018-02-18T15:50:05.122Z,22.8
2018-02-18T15:52:05.124Z,22.8
2018-02-18T15:54:05.326Z,22.8
2018-02-18T15:56:05.355Z,22.8
2018-02-18T15:58:07.472Z,22.8
2018-02-18T16:00:05.481Z,22.8
2018-02-18T16:02:05.506Z,22.9
2018-02-18T16:04:08.080Z,22.8
2018-02-18T16:06:05.485Z,22.8
2018-02-18T16:08:05.312Z,22.8
2018-02-18T16:10:05.157Z,22.8
2018-02-18T16:12:05.143Z,22.8
2018-02-18T16:14:05.461Z,22.9
2018-02-18T16:16:05.319Z,22.9
2018-02-18T16:18:05.366Z,22.9
2018-02-18T16:20:04.840Z,22.9
2018-02-18T16:22:04.900Z,22.9
2018-02-18T16:24:07.302Z,22.9
2018-02-18T16:26:05.131Z,22.9
2018-02-18T16:28:05.557Z,22.9
2018-02-18T16:30:05.349Z,22.9
2018-02-18T16:32:05.267Z,22.9
2018-02-18T16:34:05.127Z,22.9
2018-02-18T16:36:05.494Z,22.9
2018-02-18T16:38:05.546Z,23
2018-02-18T16:40:05.658Z,23
2018-02-18T16:42:05.479Z,23
2018-02-18T16:44:05.342Z,23
2018-02-18T16:46:05.166Z,22.9
2018-02-18T16:48:05.714Z,23
2018-02-18T16:50:07.426Z,23
2018-02-18T16:52:04.729Z,23
2018-02-18T16:54:04.900Z,23
2018-02-18T16:56:07.200Z,23.1
2018-02-18T16:58:07.489Z,23.1
2018-02-18T17:00:05.264Z,23.1
2018-02-18T17:02:05.058Z,23.1
2018-02-18T17:04:04.831Z,23.1
2018-02-18T17:06:05.636Z,23.1
2018-02-18T17:08:05.443Z,23.1
2018-02-18T17:10:05.250Z,23.1
2018-02-18T17:12:05.086Z,23.1
2018-02-18T17:14:04.902Z,23.1
2018-02-18T17:16:05.518Z,23.1
2018-02-18T17:18:07.300Z,23.1
2018-02-18T17:20:05.073Z,23.1
2018-02-18T17:22:07.382Z,23.1
2018-02-18T17:24:12.385Z,23.1
2018-02-18T17:26:05.282Z,23.1
2018-02-18T17:28:05.182Z,23.1
2018-02-18T17:30:04.982Z,23.1
2018-02-18T17:32:09.881Z,23
2018-02-18T17:34:05.610Z,23
2018-02-18T17:36:08.008Z,23
2018-02-18T17:38:05.052Z,23
2018-02-18T17:40:15.504Z,23
2018-02-18T17:42:05.321Z,23
2018-02-18T17:44:04.731Z,23
2018-02-18T17:46:05.062Z,23
2018-02-18T17:48:04.841Z,23
2018-02-18T17:50:05.661Z,23
2018-02-18T17:52:05.442Z,23
2018-02-18T17:54:04.991Z,23
2018-02-18T17:56:07.304Z,23.1
2018-02-18T17:58:05.162Z,23.1
2018-02-18T18:00:04.997Z,23.2
2018-02-18T18:02:04.848Z,23.2
2018-02-18T18:04:05.622Z,23.2
2018-02-18T18:06:05.645Z,23.1
2018-02-18T18:08:05.447Z,23.1
2018-02-18T18:10:04.942Z,23.1
2018-02-18T18:12:04.991Z,23.1
2018-02-18T18:14:07.859Z,23.1
2018-02-18T18:16:05.586Z,23.1
2018-02-18T18:18:07.633Z,23.2
2018-02-18T18:20:07.983Z,23.2
2018-02-18T18:22:05.239Z,23.2
2018-02-18T18:24:05.595Z,23.2
2018-02-18T18:26:08.160Z,23.1
2018-02-18T18:28:04.973Z,23.1
2018-02-18T18:30:07.576Z,23.2
2018-02-18T18:32:06.895Z,23.2
2018-02-18T18:34:05.359Z,23.2
2018-02-18T18:36:05.051Z,23.2
2018-02-18T18:38:07.463Z,23.2
2018-02-18T18:40:05.271Z,23.2
2018-02-18T18:42:05.519Z,23.2
2018-02-18T18:44:14.506Z,23.2
2018-02-18T18:46:05.443Z,23.2
2018-02-18T18:48:04.955Z,23.3
2018-02-18T18:52:07.468Z,23.3
2018-02-18T18:54:04.938Z,23.3
2018-02-18T18:56:04.743Z,23.3
2018-02-18T18:58:05.626Z,23.3
2018-02-18T19:00:08.525Z,23.3
2018-02-18T19:02:12.860Z,23.3
2018-02-18T19:04:06.213Z,23.3
2018-02-18T19:06:05.104Z,23.3
2018-02-18T19:08:10.202Z,23.3
2018-02-18T19:10:12.798Z,23.3
2018-02-18T19:12:04.809Z,23.3
2018-02-18T19:14:05.244Z,23.3
2018-02-18T19:16:05.183Z,23.3
2018-02-18T19:18:05.186Z,23.3
2018-02-18T19:20:07.541Z,23.3
2018-02-18T19:22:05.384Z,23.3
2018-02-18T19:24:04.988Z,23.3
2018-02-18T19:26:05.024Z,23.3
2018-02-18T19:28:05.028Z,23.3
2018-02-18T19:30:07.318Z,23.3
2018-02-18T19:32:07.621Z,23.3
2018-02-18T19:34:04.890Z,23.3
2018-02-18T19:36:04.702Z,23.3
2018-02-18T19:38:10.499Z,23.3
2018-02-18T19:40:07.815Z,23.3
2018-02-18T19:42:04.863Z,23.3
2018-02-18T19:44:05.009Z,23.3
2018-02-18T19:46:07.617Z,23.3
2018-02-18T19:48:08.196Z,23.2
2018-02-18T19:50:05.007Z,23.3
2018-02-18T19:52:05.497Z,23.2
2018-02-18T19:54:04.932Z,23.3
2018-02-18T19:56:08.859Z,23.2
2018-02-18T19:58:04.643Z,23.2
2018-02-18T20:00:04.628Z,23.2
2018-02-18T20:02:05.362Z,23.2
2018-02-18T20:04:05.118Z,23.2
2018-02-18T20:06:05.332Z,23.2
2018-02-18T20:08:05.265Z,23.2
2018-02-18T20:10:05.068Z,23.2
2018-02-18T20:12:10.094Z,23.2
2018-02-18T20:14:04.844Z,23.2
2018-02-18T20:16:04.829Z,23.2
2018-02-18T20:18:10.115Z,23.2
2018-02-18T20:20:05.191Z,23.2
2018-02-18T20:22:04.953Z,23.2
2018-02-18T20:24:07.743Z,23.2
2018-02-18T20:26:08.092Z,23.2
2018-02-18T20:28:04.902Z,23.2
2018-02-18T20:30:07.183Z,23.2
2018-02-18T20:32:05.212Z,23.2
2018-02-18T20:34:04.962Z,23.2
2018-02-18T20:36:10.250Z,23.2
2018-02-18T20:38:05.264Z,23.2
2018-02-18T20:40:05.081Z,23.3
2018-02-18T20:42:05.933Z,23.3
2018-02-18T20:44:05.012Z,23.3
2018-02-18T20:46:09.855Z,23.2
2018-02-18T20:48:04.925Z,23.2
2018-02-18T20:50:04.704Z,23.2
2018-02-18T20:52:05.068Z,23.3
2018-02-18T20:54:07.560Z,23.3
2018-02-18T20:56:06.037Z,23.3
2018-02-18T20:58:08.681Z,23.3
2018-02-18T21:00:07.222Z,23.3
2018-02-18T21:02:04.990Z,23.2
2018-02-18T21:04:05.092Z,23.3
2018-02-18T21:06:05.100Z,23.3
2018-02-18T21:08:07.407Z,23.3
2018-02-18T21:10:05.136Z,23.3
2018-02-18T21:12:05.127Z,23.3
2018-02-18T21:14:04.865Z,23.2
2018-02-18T21:16:08.395Z,23.3
2018-02-18T21:18:04.880Z,23.2
2018-02-18T21:20:05.648Z,23.3
2018-02-18T21:22:05.551Z,23.3
2018-02-18T21:24:07.881Z,23.3
2018-02-18T21:26:07.386Z,23.3
2018-02-18T21:28:05.287Z,23.3
2018-02-18T21:30:10.749Z,23.3
2018-02-18T21:32:08.008Z,23.3
2018-02-18T21:34:05.279Z,23.3
2018-02-18T21:36:05.141Z,23.3
2018-02-18T21:38:05.084Z,23.3
2018-02-18T21:40:04.863Z,23.3
2018-02-18T21:42:05.673Z,23.3
2018-02-18T21:44:05.491Z,23.3
2018-02-18T21:46:05.312Z,23.3
2018-02-18T21:48:05.095Z,23.3
2018-02-18T21:50:04.954Z,23.3
2018-02-18T21:52:04.869Z,23.3
2018-02-18T21:54:05.636Z,23.2
2018-02-18T21:56:05.434Z,23.3
2018-02-18T21:58:04.722Z,23.3
2018-02-18T22:00:05.039Z,23.2
2018-02-18T22:02:04.804Z,23.3
2018-02-18T22:04:05.704Z,23.3
2018-02-18T22:06:10.583Z,23.3
2018-02-18T22:08:05.451Z,23.3
2018-02-18T22:10:05.474Z,23.3
2018-02-18T22:12:04.995Z,23.3
2018-02-18T22:14:04.767Z,23.3
2018-02-18T22:16:05.504Z,23.3
2018-02-18T22:18:05.476Z,23.3
2018-02-18T22:20:05.254Z,23.3
2018-02-18T22:22:07.544Z,23.3
2018-02-18T22:24:05.275Z,23.3
2018-02-18T22:26:10.322Z,23.3
2018-02-18T22:28:05.142Z,23.3
2018-02-18T22:30:05.302Z,23.3
2018-02-18T22:32:05.136Z,23.3
2018-02-18T22:34:04.916Z,23.3
2018-02-18T22:36:05.215Z,23.3
2018-02-18T22:38:07.608Z,23.4
2018-02-18T22:40:15.721Z,23.3
2018-02-18T22:42:05.593Z,23.3
2018-02-18T22:44:04.959Z,23.3
2018-02-18T22:46:04.882Z,23.3
2018-02-18T22:48:04.719Z,23.3
2018-02-18T22:50:04.980Z,23.3
2018-02-18T22:52:05.323Z,23.3
2018-02-18T22:54:07.212Z,23.2
2018-02-18T22:56:04.935Z,23.2
2018-02-18T22:58:04.682Z,23.3
2018-02-18T23:00:05.006Z,23.2
2018-02-18T23:02:04.847Z,23.2
2018-02-18T23:04:05.646Z,23.2
2018-02-18T23:06:05.681Z,23.2
2018-02-18T23:08:05.480Z,23.1
2018-02-18T23:10:05.183Z,23.1
2018-02-18T23:12:07.475Z,23.1
2018-02-18T23:14:05.244Z,23.1
2018-02-18T23:16:04.999Z,23.1
2018-02-18T23:18:05.749Z,23.1
2018-02-18T23:20:07.584Z,23.1
2018-02-18T23:22:09.989Z,23.1
2018-02-18T23:24:04.837Z,23.1
2018-02-18T23:26:05.604Z,23.1
2018-02-18T23:28:05.402Z,23.1
2018-02-18T23:30:05.151Z,23.1
2018-02-18T23:32:05.023Z,23.1
2018-02-18T23:34:10.466Z,23
2018-02-18T23:36:05.232Z,23
2018-02-18T23:38:05.019Z,23
2018-02-18T23:40:04.836Z,23
2018-02-18T23:42:08.198Z,23
2018-02-18T23:44:04.966Z,23
2018-02-18T23:46:04.838Z,23
2018-02-18T23:48:05.637Z,23
2018-02-18T23:50:05.415Z,23
2018-02-18T23:52:05.199Z,23
2018-02-18T23:54:04.992Z,23
2018-02-18T23:56:04.844Z,23
2018-02-18T23:58:05.718Z,23
